createdAt,value
2023-04-10T00:00:14.822Z,20.40
2023-04-10T00:01:08.708Z,19.50
2023-04-10T00:01:42.446Z,18.00
2023-04-10T00:02:16.292Z,18.80
2023-04-10T00:02:50.152Z,18.30
2023-04-10T00:03:24.868Z,19.50
2023-04-10T00:03:59.221Z,20.30
2023-04-10T00:04:33.448Z,20.40
2023-04-10T00:05:08.388Z,20.00
2023-04-10T00:05:42.920Z,19.30
2023-04-10T00:06:16.798Z,19.00
2023-04-10T00:06:51.328Z,20.20
2023-04-10T00:07:27.882Z,18.90
2023-04-10T00:08:03.192Z,18.20
2023-04-10T00:08:36.922Z,18.80
2023-04-10T00:09:11.256Z,18.10
2023-04-10T00:09:44.966Z,17.90
2023-04-10T00:10:22.643Z,19.50
2023-04-10T00:11:01.864Z,18.90
2023-04-10T00:11:39.007Z,20.40
2023-04-10T00:12:12.346Z,17.60
2023-04-10T00:12:46.698Z,18.50
2023-04-10T00:13:20.786Z,19.00
2023-04-10T00:13:54.866Z,19.40
2023-04-10T00:14:29.010Z,18.80
2023-04-10T00:15:02.603Z,18.30
2023-04-10T00:15:36.310Z,18.40
2023-04-10T00:16:09.870Z,18.80
2023-04-10T00:16:43.406Z,19.20
2023-04-10T00:17:17.024Z,19.00
2023-04-10T00:17:55.454Z,19.30
2023-04-10T00:18:29.404Z,18.90
2023-04-10T00:19:02.944Z,20.20
2023-04-10T00:19:36.764Z,19.70
2023-04-10T00:20:10.556Z,20.30
2023-04-10T00:20:43.910Z,19.20
2023-04-10T00:21:17.698Z,19.70
2023-04-10T00:21:51.556Z,19.90
2023-04-10T00:22:26.164Z,18.70
2023-04-10T00:22:59.808Z,19.30
2023-04-10T00:23:34.853Z,19.70
2023-04-10T00:24:08.718Z,20.00
2023-04-10T00:24:44.884Z,19.00
2023-04-10T00:25:18.571Z,18.70
2023-04-10T00:25:52.076Z,20.50
2023-04-10T00:26:27.063Z,18.70
2023-04-10T00:27:01.954Z,19.10
2023-04-10T00:27:35.566Z,19.10
2023-04-10T00:28:09.148Z,18.80
2023-04-10T00:28:42.674Z,20.10
2023-04-10T00:29:16.356Z,19.00
2023-04-10T00:29:50.238Z,18.00
2023-04-10T00:30:24.075Z,19.40
2023-04-10T00:30:57.636Z,20.00
2023-04-10T00:31:32.056Z,20.00
2023-04-10T00:32:05.746Z,19.10
2023-04-10T00:32:39.336Z,18.50
2023-04-10T00:33:12.973Z,20.40
2023-04-10T00:33:46.564Z,18.30
2023-04-10T00:34:20.084Z,18.50
2023-04-10T00:34:53.921Z,18.90
2023-04-10T00:35:27.403Z,19.30
2023-04-10T00:36:00.921Z,20.10
2023-04-10T00:36:34.959Z,18.90
2023-04-10T00:37:08.466Z,19.90
2023-04-10T00:37:42.142Z,19.00
2023-04-10T00:38:15.658Z,19.80
2023-04-10T00:38:50.082Z,19.40
2023-04-10T00:39:23.574Z,20.70
2023-04-10T00:39:57.216Z,20.60
2023-04-10T00:40:30.756Z,20.00
2023-04-10T00:41:04.599Z,21.50
2023-04-10T00:41:38.165Z,20.60
2023-04-10T00:42:11.613Z,19.20
2023-04-10T00:42:45.538Z,20.50
2023-04-10T00:43:20.532Z,19.80
2023-04-10T00:43:57.838Z,20.60
2023-04-10T00:44:31.826Z,20.30
2023-04-10T00:45:05.830Z,19.70
2023-04-10T00:45:42.034Z,22.20
2023-04-10T00:46:16.251Z,19.60
2023-04-10T00:46:49.957Z,21.40
2023-04-10T00:47:23.681Z,21.10
2023-04-10T00:47:58.157Z,20.70
2023-04-10T00:48:31.794Z,19.20
2023-04-10T00:49:06.476Z,20.30
2023-04-10T00:49:41.623Z,20.00
2023-04-10T00:50:15.085Z,19.10
2023-04-10T00:50:48.732Z,22.90
2023-04-10T00:51:23.296Z,19.10
2023-04-10T00:51:58.335Z,19.80
2023-04-10T00:52:32.926Z,18.80
2023-04-10T00:53:06.720Z,17.60
2023-04-10T00:53:40.254Z,17.90
2023-04-10T00:54:14.173Z,19.20
2023-04-10T00:54:47.908Z,18.80
2023-04-10T00:55:21.522Z,19.10
2023-04-10T00:55:56.472Z,19.60
2023-04-10T00:56:33.819Z,18.40
2023-04-10T00:57:07.744Z,19.40
2023-04-10T00:57:46.331Z,19.40
2023-04-10T00:58:19.831Z,18.60
2023-04-10T00:58:53.375Z,20.00
2023-04-10T00:59:26.934Z,18.40
2023-04-10T01:00:00.942Z,18.50
2023-04-10T01:00:34.754Z,19.60
2023-04-10T01:01:08.890Z,19.80
2023-04-10T01:01:42.426Z,19.50
2023-04-10T01:02:16.034Z,20.80
2023-04-10T01:02:50.676Z,18.90
2023-04-10T01:03:25.628Z,20.10
2023-04-10T01:04:00.154Z,20.80
2023-04-10T01:04:34.801Z,20.10
2023-04-10T01:05:09.505Z,20.40
2023-04-10T01:05:51.950Z,17.80
2023-04-10T01:06:37.704Z,19.30
2023-04-10T01:07:41.763Z,17.80
2023-04-10T01:08:26.985Z,17.50
2023-04-10T01:09:11.657Z,18.40
2023-04-10T01:09:53.897Z,17.30
2023-04-10T01:10:38.825Z,17.10
2023-04-10T01:11:45.527Z,18.80
2023-04-10T01:13:06.017Z,16.50
2023-04-10T01:14:05.914Z,16.10
2023-04-10T01:15:07.248Z,17.50
2023-04-10T01:15:50.289Z,16.20
2023-04-10T01:16:29.954Z,18.10
2023-04-10T01:17:22.225Z,17.30
2023-04-10T01:18:14.072Z,18.60
2023-04-10T01:19:17.921Z,16.90
2023-04-10T01:20:10.618Z,18.30
2023-04-10T01:20:44.513Z,17.70
2023-04-10T01:21:18.534Z,19.10
2023-04-10T01:21:55.597Z,19.40
2023-04-10T01:22:42.074Z,20.70
2023-04-10T01:23:59.492Z,18.60
2023-04-10T01:25:14.195Z,18.60
2023-04-10T01:25:59.647Z,18.70
2023-04-10T01:26:51.748Z,20.00
2023-04-10T01:27:40.601Z,17.70
2023-04-10T01:28:20.223Z,19.60
2023-04-10T01:29:09.757Z,19.10
2023-04-10T01:29:48.488Z,18.30
2023-04-10T01:30:23.310Z,19.60
2023-04-10T01:31:01.598Z,20.00
2023-04-10T01:31:46.715Z,19.50
2023-04-10T01:32:23.212Z,20.30
2023-04-10T01:33:02.282Z,20.40
2023-04-10T01:33:50.907Z,20.00
2023-04-10T01:34:28.325Z,19.00
2023-04-10T01:35:07.821Z,20.10
2023-04-10T01:35:43.358Z,20.90
2023-04-10T01:36:28.305Z,21.00
2023-04-10T01:37:05.515Z,23.00
2023-04-10T01:37:43.959Z,20.50
2023-04-10T01:38:19.462Z,19.90
2023-04-10T01:38:54.879Z,22.60
2023-04-10T01:39:30.708Z,20.50
2023-04-10T01:40:10.772Z,20.80
2023-04-10T01:40:50.423Z,21.80
2023-04-10T01:41:33.360Z,21.60
2023-04-10T01:42:09.293Z,20.00
2023-04-10T01:42:48.981Z,20.80
2023-04-10T01:43:23.564Z,19.90
2023-04-10T01:43:59.570Z,19.10
2023-04-10T01:44:36.900Z,21.50
2023-04-10T01:45:16.577Z,20.70
2023-04-10T01:45:53.362Z,19.20
2023-04-10T01:46:28.428Z,19.90
2023-04-10T01:47:03.360Z,22.50
2023-04-10T01:47:37.120Z,19.20
2023-04-10T01:48:11.804Z,19.80
2023-04-10T01:48:46.886Z,19.20
2023-04-10T01:51:18.067Z,17.10
2023-04-10T01:51:52.106Z,19.40
2023-04-10T01:52:27.259Z,17.80
2023-04-10T01:53:10.907Z,18.50
2023-04-10T01:53:46.360Z,18.70
2023-04-10T01:54:20.580Z,19.40
2023-04-10T01:54:55.181Z,20.80
2023-04-10T01:55:37.715Z,18.30
2023-04-10T01:56:13.929Z,18.30
2023-04-10T01:56:53.115Z,19.60
2023-04-10T01:57:26.993Z,19.70
2023-04-10T01:58:04.951Z,18.00
2023-04-10T01:58:38.772Z,19.30
2023-04-10T01:59:13.132Z,20.10
2023-04-10T01:59:46.967Z,19.90
2023-04-10T02:00:20.961Z,19.60
2023-04-10T02:00:54.493Z,19.10
2023-04-10T02:01:30.261Z,21.20
2023-04-10T02:02:05.137Z,19.20
2023-04-10T02:02:38.810Z,21.70
2023-04-10T02:03:12.607Z,22.10
2023-04-10T02:03:46.838Z,22.20
2023-04-10T02:04:20.837Z,22.30
2023-04-10T02:04:54.423Z,21.90
2023-04-10T02:05:33.925Z,21.60
2023-04-10T02:06:15.766Z,19.10
2023-04-10T02:06:49.166Z,20.90
2023-04-10T02:07:31.854Z,22.80
2023-04-10T02:08:15.897Z,22.40
2023-04-10T02:08:57.868Z,21.40
2023-04-10T02:09:43.426Z,22.80
2023-04-10T02:10:30.011Z,23.80
2023-04-10T02:11:18.283Z,23.10
2023-04-10T02:11:54.640Z,24.60
2023-04-10T02:12:44.429Z,22.90
2023-04-10T02:13:23.752Z,22.30
2023-04-10T02:14:02.433Z,21.60
2023-04-10T02:14:39.565Z,22.10
2023-04-10T02:15:13.640Z,23.20
2023-04-10T02:15:48.100Z,21.00
2023-04-10T02:16:23.225Z,24.40
2023-04-10T02:16:57.218Z,24.20
2023-04-10T02:17:31.746Z,24.30
2023-04-10T02:18:06.816Z,23.10
2023-04-10T02:18:42.616Z,24.70
2023-04-10T02:19:17.820Z,24.00
2023-04-10T02:19:53.548Z,22.80
2023-04-10T02:20:27.253Z,22.30
2023-04-10T02:21:01.886Z,22.70
2023-04-10T02:21:36.442Z,22.50
2023-04-10T02:22:09.946Z,22.10
2023-04-10T02:22:44.335Z,22.50
2023-04-10T02:23:18.433Z,21.00
2023-04-10T02:23:52.305Z,22.80
2023-04-10T02:24:26.277Z,24.10
2023-04-10T02:24:59.989Z,21.50
2023-04-10T02:25:34.025Z,22.90
2023-04-10T02:26:09.078Z,20.70
2023-04-10T02:26:49.960Z,21.20
2023-04-10T02:27:35.167Z,19.60
2023-04-10T02:28:09.152Z,19.70
2023-04-10T02:28:42.613Z,19.90
2023-04-10T02:29:16.122Z,21.70
2023-04-10T02:29:49.557Z,21.70
2023-04-10T02:30:23.756Z,20.00
2023-04-10T02:30:57.710Z,20.30
2023-04-10T02:31:31.089Z,20.30
2023-04-10T02:32:05.116Z,22.60
2023-04-10T02:32:38.576Z,20.80
2023-04-10T02:33:14.534Z,20.20
2023-04-10T02:33:48.447Z,21.30
2023-04-10T02:34:21.918Z,20.00
2023-04-10T02:34:56.652Z,19.70
2023-04-10T02:35:29.994Z,20.10
2023-04-10T02:36:03.760Z,20.10
2023-04-10T02:36:38.974Z,20.70
2023-04-10T02:37:12.531Z,20.00
2023-04-10T02:37:47.706Z,22.70
2023-04-10T02:38:21.655Z,22.10
2023-04-10T02:38:55.299Z,20.80
2023-04-10T02:39:29.650Z,20.00
2023-04-10T02:40:03.357Z,20.10
2023-04-10T02:40:43.389Z,21.50
2023-04-10T02:41:20.979Z,20.80
2023-04-10T02:41:54.533Z,20.10
2023-04-10T02:42:28.025Z,20.90
2023-04-10T02:43:03.388Z,22.20
2023-04-10T02:43:37.683Z,20.70
2023-04-10T02:44:11.337Z,21.50
2023-04-10T02:44:45.008Z,21.80
2023-04-10T02:45:18.648Z,22.00
2023-04-10T02:45:52.356Z,19.50
2023-04-10T02:46:29.677Z,22.00
2023-04-10T02:47:03.935Z,21.00
2023-04-10T02:47:37.853Z,19.90
2023-04-10T02:48:11.493Z,20.50
2023-04-10T02:48:45.596Z,20.50
2023-04-10T02:49:19.131Z,21.10
2023-04-10T02:49:52.592Z,20.20
2023-04-10T02:50:29.891Z,19.10
2023-04-10T02:51:04.052Z,19.90
2023-04-10T02:51:37.681Z,19.40
2023-04-10T02:52:11.488Z,19.20
2023-04-10T02:52:45.056Z,23.60
2023-04-10T02:53:20.336Z,20.80
2023-04-10T02:53:53.969Z,20.20
2023-04-10T02:54:34.677Z,18.20
2023-04-10T02:55:08.356Z,19.90
2023-04-10T02:55:43.181Z,20.70
2023-04-10T02:56:16.854Z,18.70
2023-04-10T02:56:50.621Z,19.40
2023-04-10T02:57:24.157Z,20.60
2023-04-10T02:57:57.735Z,20.90
2023-04-10T02:58:31.868Z,19.70
2023-04-10T02:59:06.135Z,20.60
2023-04-10T02:59:39.803Z,19.80
2023-04-10T03:00:14.308Z,19.10
2023-04-10T03:01:09.968Z,18.50
2023-04-10T03:01:47.564Z,19.60
2023-04-10T03:02:21.980Z,19.80
2023-04-10T03:02:56.559Z,19.20
2023-04-10T03:03:31.110Z,19.20
2023-04-10T03:04:05.571Z,18.80
2023-04-10T03:04:43.375Z,20.40
2023-04-10T03:05:16.975Z,21.10
2023-04-10T03:05:50.698Z,20.50
2023-04-10T03:06:27.516Z,20.80
2023-04-10T03:07:02.080Z,20.30
2023-04-10T03:07:35.848Z,19.30
2023-04-10T03:08:10.121Z,18.40
2023-04-10T03:08:43.535Z,18.70
2023-04-10T03:09:18.051Z,20.20
2023-04-10T03:09:51.602Z,18.20
2023-04-10T03:10:25.078Z,19.80
2023-04-10T03:10:58.513Z,19.70
2023-04-10T03:11:31.968Z,18.20
2023-04-10T03:12:05.583Z,18.80
2023-04-10T03:12:38.921Z,18.90
2023-04-10T03:13:12.544Z,18.70
2023-04-10T03:13:46.172Z,18.90
2023-04-10T03:14:20.022Z,21.20
2023-04-10T03:14:53.753Z,19.70
2023-04-10T03:15:27.256Z,19.60
2023-04-10T03:16:00.750Z,19.80
2023-04-10T03:16:34.618Z,19.30
2023-04-10T03:17:09.907Z,19.10
2023-04-10T03:17:43.698Z,18.00
2023-04-10T03:18:17.389Z,18.80
2023-04-10T03:18:51.887Z,18.00
2023-04-10T03:19:26.901Z,17.60
2023-04-10T03:20:00.592Z,19.80
2023-04-10T03:20:34.516Z,18.40
2023-04-10T03:21:09.781Z,17.40
2023-04-10T03:21:43.249Z,19.70
2023-04-10T03:22:16.617Z,20.50
2023-04-10T03:22:50.976Z,20.00
2023-04-10T03:23:24.544Z,19.10
2023-04-10T03:23:58.250Z,19.30
2023-04-10T03:24:31.909Z,20.60
2023-04-10T03:25:06.001Z,20.30
2023-04-10T03:25:39.579Z,19.80
2023-04-10T03:26:13.679Z,21.70
2023-04-10T03:26:48.010Z,19.80
2023-04-10T03:27:22.031Z,19.90
2023-04-10T03:27:55.806Z,20.70
2023-04-10T03:28:29.998Z,20.20
2023-04-10T03:29:04.457Z,20.70
2023-04-10T03:29:37.905Z,19.90
2023-04-10T03:30:11.835Z,21.10
2023-04-10T03:30:47.205Z,20.70
2023-04-10T03:31:20.856Z,19.40
2023-04-10T03:31:54.462Z,20.60
2023-04-10T03:32:31.333Z,19.60
2023-04-10T03:33:04.659Z,19.30
2023-04-10T03:33:38.287Z,19.30
2023-04-10T03:34:11.830Z,18.40
2023-04-10T03:34:45.360Z,20.80
2023-04-10T03:35:19.012Z,20.70
2023-04-10T03:35:53.970Z,20.40
2023-04-10T03:36:28.246Z,19.40
2023-04-10T03:37:01.651Z,20.00
2023-04-10T03:37:36.407Z,20.50
2023-04-10T03:38:12.511Z,19.90
2023-04-10T03:38:46.742Z,21.50
2023-04-10T03:39:21.018Z,20.80
2023-04-10T03:39:54.418Z,22.80
2023-04-10T03:40:28.071Z,22.00
2023-04-10T03:41:02.085Z,22.50
2023-04-10T03:41:37.252Z,51.60
2023-04-10T03:42:11.683Z,21.60
2023-04-10T03:42:45.901Z,22.30
2023-04-10T03:43:19.656Z,21.40
2023-04-10T03:43:53.721Z,21.40
2023-04-10T03:44:27.609Z,21.60
2023-04-10T03:45:04.937Z,20.90
2023-04-10T03:45:38.478Z,21.60
2023-04-10T03:46:12.402Z,19.70
2023-04-10T03:46:48.335Z,18.80
2023-04-10T03:47:22.070Z,18.40
2023-04-10T03:47:56.862Z,20.40
2023-04-10T03:48:30.919Z,18.90
2023-04-10T03:49:04.453Z,27.20
2023-04-10T03:49:38.774Z,21.70
2023-04-10T03:50:13.323Z,18.30
2023-04-10T03:51:08.312Z,17.40
2023-04-10T03:51:41.924Z,77.70
2023-04-10T03:52:15.645Z,18.40
2023-04-10T03:52:52.069Z,16.40
2023-04-10T03:53:26.827Z,18.20
2023-04-10T03:54:00.959Z,17.70
2023-04-10T03:54:34.857Z,17.20
2023-04-10T03:55:08.628Z,17.30
2023-04-10T03:55:42.322Z,17.70
2023-04-10T03:56:16.776Z,25.00
2023-04-10T03:56:51.834Z,23.00
2023-04-10T03:57:32.100Z,22.10
2023-04-10T03:58:12.511Z,24.30
2023-04-10T03:58:46.128Z,45.00
2023-04-10T03:59:19.879Z,17.00
2023-04-10T03:59:53.587Z,18.30
2023-04-10T04:00:27.604Z,16.70
2023-04-10T04:01:07.952Z,18.00
2023-04-10T04:01:47.596Z,16.10
2023-04-10T04:02:21.336Z,30.10
2023-04-10T04:02:55.542Z,53.70
2023-04-10T04:03:47.893Z,116.30
2023-04-10T04:04:40.873Z,34.20
2023-04-10T04:05:52.746Z,14.60
2023-04-10T04:06:35.593Z,21.70
2023-04-10T04:07:18.393Z,14.40
2023-04-10T04:08:10.254Z,14.70
2023-04-10T04:09:02.159Z,15.00
2023-04-10T04:10:10.174Z,14.00
2023-04-10T04:11:04.783Z,13.20
2023-04-10T04:12:13.461Z,13.20
2023-04-10T04:12:46.826Z,14.50
2023-04-10T04:13:57.552Z,13.30
2023-04-10T04:14:52.884Z,12.80
2023-04-10T04:15:53.638Z,12.90
2023-04-10T04:16:43.674Z,13.40
2023-04-10T04:17:49.517Z,14.90
2023-04-10T04:18:41.064Z,15.30
2023-04-10T04:19:37.467Z,16.10
2023-04-10T04:20:22.857Z,17.70
2023-04-10T04:21:08.795Z,16.00
2023-04-10T04:22:05.048Z,17.10
2023-04-10T04:22:58.364Z,17.80
2023-04-10T04:24:11.854Z,18.40
2023-04-10T04:25:11.807Z,17.20
2023-04-10T04:26:05.965Z,18.60
2023-04-10T04:26:59.959Z,18.60
2023-04-10T04:27:53.922Z,19.70
2023-04-10T04:28:44.743Z,21.10
2023-04-10T04:29:39.382Z,19.80
2023-04-10T04:30:21.482Z,20.90
2023-04-10T04:31:32.834Z,19.10
2023-04-10T04:32:21.787Z,18.40
2023-04-10T04:33:22.313Z,18.00
2023-04-10T04:35:06.736Z,23.90
2023-04-10T04:35:57.422Z,28.70
2023-04-10T04:36:42.904Z,15.60
2023-04-10T04:37:42.567Z,16.80
2023-04-10T04:38:34.132Z,15.30
2023-04-10T04:39:19.025Z,15.40
2023-04-10T04:40:11.309Z,18.20
2023-04-10T04:41:07.783Z,16.80
2023-04-10T04:42:07.892Z,18.10
2023-04-10T04:42:54.690Z,17.40
2023-04-10T04:43:32.885Z,19.50
2023-04-10T04:44:13.219Z,18.20
2023-04-10T04:45:05.558Z,18.20
2023-04-10T04:46:10.977Z,19.60
2023-04-10T04:47:13.778Z,20.60
2023-04-10T04:49:45.880Z,18.50
2023-04-10T04:50:32.971Z,19.20
2023-04-10T04:51:09.018Z,18.50
2023-04-10T04:51:47.641Z,18.90
2023-04-10T04:52:35.472Z,17.20
2023-04-10T04:53:21.217Z,19.30
2023-04-10T04:54:14.868Z,16.20
2023-04-10T04:55:01.453Z,16.50
2023-04-10T04:55:55.027Z,16.30
2023-04-10T04:56:45.023Z,16.00
2023-04-10T04:57:45.113Z,15.90
2023-04-10T04:59:54.177Z,23.20
2023-04-10T05:00:47.966Z,22.60
2023-04-10T05:01:47.718Z,21.80
2023-04-10T05:02:39.851Z,17.50
2023-04-10T05:03:48.886Z,39.40
2023-04-10T05:04:49.187Z,48.10
2023-04-10T05:05:43.368Z,30.20
2023-04-10T05:06:32.051Z,42.20
2023-04-10T05:07:34.818Z,22.30
2023-04-10T05:08:19.963Z,16.00
2023-04-10T05:09:07.511Z,18.90
2023-04-10T05:09:59.515Z,15.50
2023-04-10T05:11:07.603Z,15.50
2023-04-10T05:11:47.306Z,15.80
2023-04-10T05:12:27.810Z,15.40
2023-04-10T05:13:21.693Z,16.00
2023-04-10T05:14:14.988Z,14.30
2023-04-10T05:15:04.612Z,15.10
2023-04-10T05:15:58.293Z,13.90
2023-04-10T05:16:46.233Z,14.90
2023-04-10T05:17:30.155Z,14.70
2023-04-10T05:18:21.873Z,14.60
2023-04-10T05:19:27.538Z,14.40
2023-04-10T05:20:21.884Z,15.60
2023-04-10T05:21:16.062Z,16.70
2023-04-10T05:22:28.877Z,19.30
2023-04-10T05:23:31.550Z,20.50
2023-04-10T05:24:25.225Z,19.80
2023-04-10T05:25:19.378Z,19.40
2023-04-10T05:26:31.101Z,17.70
2023-04-10T05:27:50.472Z,16.70
2023-04-10T05:30:04.169Z,17.80
2023-04-10T05:30:48.156Z,17.60
2023-04-10T05:31:39.888Z,17.90
2023-04-10T05:32:36.220Z,16.40
2023-04-10T05:33:26.234Z,16.60
2023-04-10T05:34:15.031Z,20.40
2023-04-10T05:35:07.578Z,19.10
2023-04-10T05:35:53.689Z,20.60
2023-04-10T05:36:47.599Z,19.10
2023-04-10T05:37:28.328Z,18.30
2023-04-10T05:38:08.945Z,22.30
2023-04-10T05:38:50.335Z,33.50
2023-04-10T05:39:42.209Z,19.50
2023-04-10T05:40:39.127Z,20.10
2023-04-10T05:41:31.494Z,20.10
2023-04-10T05:42:23.938Z,18.20
2023-04-10T05:43:22.564Z,18.00
2023-04-10T05:44:11.145Z,19.50
2023-04-10T05:45:04.921Z,23.80
2023-04-10T05:45:56.692Z,28.50
2023-04-10T05:47:10.691Z,32.70
2023-04-10T05:47:47.188Z,29.60
2023-04-10T05:48:33.747Z,52.40
2023-04-10T05:49:22.707Z,41.90
2023-04-10T05:50:14.702Z,62.50
2023-04-10T05:51:16.969Z,26.10
2023-04-10T05:52:28.473Z,52.90
2023-04-10T05:53:14.190Z,35.20
2023-04-10T05:54:10.589Z,75.40
2023-04-10T05:55:16.260Z,77.70
2023-04-10T05:56:02.523Z,84.90
2023-04-10T05:56:45.241Z,78.90
2023-04-10T05:57:37.217Z,81.40
2023-04-10T05:58:43.048Z,91.40
2023-04-10T05:59:31.734Z,95.40
2023-04-10T06:00:25.657Z,89.60
2023-04-10T06:01:29.208Z,70.60
2023-04-10T06:02:06.582Z,173.50
2023-04-10T06:02:40.163Z,64.50
2023-04-10T06:03:18.708Z,99.70
2023-04-10T06:03:57.908Z,144.70
2023-04-10T06:04:32.258Z,64.50
2023-04-10T06:05:07.460Z,117.00
2023-04-10T06:05:41.809Z,141.90
2023-04-10T06:06:15.446Z,131.20
2023-04-10T06:06:49.187Z,134.10
2023-04-10T06:07:22.748Z,99.70
2023-04-10T06:07:59.410Z,106.10
2023-04-10T06:08:33.088Z,122.20
2023-04-10T06:09:06.627Z,69.00
2023-04-10T06:09:40.791Z,171.90
2023-04-10T06:10:14.680Z,100.90
2023-04-10T06:10:48.127Z,107.90
2023-04-10T06:11:22.076Z,113.00
2023-04-10T06:11:58.491Z,133.50
2023-04-10T06:12:32.345Z,136.10
2023-04-10T06:13:09.229Z,108.00
2023-04-10T06:13:44.402Z,118.70
2023-04-10T06:14:19.751Z,62.40
2023-04-10T06:14:53.447Z,121.10
2023-04-10T06:15:28.034Z,56.40
2023-04-10T06:16:02.584Z,85.80
2023-04-10T06:16:37.080Z,137.80
2023-04-10T06:17:10.645Z,134.60
2023-04-10T06:17:44.708Z,192.10
2023-04-10T06:18:19.780Z,204.90
2023-04-10T06:18:55.126Z,146.90
2023-04-10T06:19:28.869Z,115.10
2023-04-10T06:20:05.014Z,59.20
2023-04-10T06:20:38.669Z,124.60
2023-04-10T06:21:12.152Z,90.60
2023-04-10T06:21:45.768Z,73.10
2023-04-10T06:22:19.124Z,85.60
2023-04-10T06:22:52.561Z,90.40
2023-04-10T06:23:26.876Z,51.60
2023-04-10T06:24:00.910Z,44.00
2023-04-10T06:24:34.480Z,103.30
2023-04-10T06:25:08.353Z,50.60
2023-04-10T06:25:41.987Z,32.00
2023-04-10T06:26:15.679Z,57.60
2023-04-10T06:26:49.108Z,64.60
2023-04-10T06:27:22.508Z,80.90
2023-04-10T06:27:56.424Z,54.30
2023-04-10T06:28:30.558Z,105.40
2023-04-10T06:29:06.504Z,82.90
2023-04-10T06:29:40.646Z,79.90
2023-04-10T06:30:13.958Z,49.70
2023-04-10T06:30:47.506Z,96.60
2023-04-10T06:31:24.232Z,64.00
2023-04-10T06:31:57.792Z,54.60
2023-04-10T06:32:31.755Z,62.10
2023-04-10T06:33:05.368Z,33.80
2023-04-10T06:33:40.154Z,21.40
2023-04-10T06:34:14.507Z,28.60
2023-04-10T06:35:29.808Z,24.40
2023-04-10T06:36:04.321Z,33.30
2023-04-10T06:36:41.023Z,28.40
2023-04-10T06:37:14.460Z,25.20
2023-04-10T06:37:47.959Z,23.50
2023-04-10T06:38:21.978Z,22.80
2023-04-10T06:38:55.801Z,21.10
2023-04-10T06:39:29.698Z,26.00
2023-04-10T06:40:08.824Z,29.60
2023-04-10T06:40:42.281Z,28.60
2023-04-10T06:41:15.893Z,28.80
2023-04-10T06:41:49.436Z,28.00
2023-04-10T06:42:35.601Z,27.70
2023-04-10T06:43:15.158Z,26.10
2023-04-10T06:43:49.312Z,19.30
2023-04-10T06:44:22.798Z,19.70
2023-04-10T06:44:56.115Z,23.70
2023-04-10T06:45:29.623Z,22.80
2023-04-10T06:46:05.196Z,21.80
2023-04-10T06:46:38.998Z,22.60
2023-04-10T06:47:13.426Z,20.60
2023-04-10T06:47:47.101Z,21.10
2023-04-10T06:48:20.630Z,21.70
2023-04-10T06:48:54.287Z,22.10
2023-04-10T06:49:27.813Z,22.20
2023-04-10T06:50:01.357Z,21.90
2023-04-10T06:50:34.985Z,20.80
2023-04-10T06:51:08.430Z,21.90
2023-04-10T06:51:42.080Z,24.50
2023-04-10T06:52:15.589Z,22.90
2023-04-10T06:52:49.065Z,22.70
2023-04-10T06:53:22.596Z,22.20
2023-04-10T06:53:56.429Z,20.80
2023-04-10T06:54:29.926Z,21.10
2023-04-10T06:55:03.512Z,27.40
2023-04-10T06:55:37.849Z,27.10
2023-04-10T06:56:11.448Z,22.40
2023-04-10T06:56:44.850Z,20.10
2023-04-10T06:57:19.063Z,22.70
2023-04-10T06:57:52.724Z,24.00
2023-04-10T06:58:26.565Z,25.50
2023-04-10T06:58:59.917Z,22.60
2023-04-10T06:59:35.076Z,22.80
2023-04-10T07:00:09.778Z,24.90
2023-04-10T07:00:43.438Z,25.20
2023-04-10T07:01:17.980Z,22.10
2023-04-10T07:01:51.483Z,22.40
2023-04-10T07:02:25.185Z,21.90
2023-04-10T07:02:58.670Z,22.80
2023-04-10T07:03:32.944Z,20.40
2023-04-10T07:04:06.632Z,22.60
2023-04-10T07:04:39.970Z,22.10
2023-04-10T07:05:14.450Z,21.60
2023-04-10T07:05:47.937Z,25.30
2023-04-10T07:06:21.473Z,21.40
2023-04-10T07:06:54.969Z,21.50
2023-04-10T07:07:29.422Z,23.40
2023-04-10T07:08:02.886Z,22.10
2023-04-10T07:08:49.350Z,22.20
2023-04-10T07:09:26.406Z,22.00
2023-04-10T07:09:59.837Z,24.60
2023-04-10T07:10:33.286Z,23.50
2023-04-10T07:11:07.071Z,23.60
2023-04-10T07:11:40.881Z,22.00
2023-04-10T07:12:14.294Z,20.70
2023-04-10T07:12:47.830Z,21.50
2023-04-10T07:13:21.646Z,19.90
2023-04-10T07:13:58.797Z,20.80
2023-04-10T07:14:34.010Z,21.50
2023-04-10T07:15:08.572Z,19.40
2023-04-10T07:15:42.172Z,18.50
2023-04-10T07:16:17.254Z,18.00
2023-04-10T07:16:51.414Z,19.50
2023-04-10T07:17:25.072Z,18.80
2023-04-10T07:17:58.435Z,18.00
2023-04-10T07:18:31.850Z,17.40
2023-04-10T07:19:05.426Z,19.80
2023-04-10T07:19:38.740Z,18.00
2023-04-10T07:20:12.336Z,17.70
2023-04-10T07:20:45.782Z,18.70
2023-04-10T07:21:19.151Z,18.60
2023-04-10T07:21:52.531Z,17.90
2023-04-10T07:22:26.619Z,17.40
2023-04-10T07:23:00.134Z,18.40
2023-04-10T07:23:36.624Z,18.50
2023-04-10T07:24:10.046Z,17.90
2023-04-10T07:24:43.626Z,16.70
2023-04-10T07:25:18.562Z,18.10
2023-04-10T07:25:52.356Z,18.40
2023-04-10T07:26:26.348Z,18.60
2023-04-10T07:27:00.980Z,17.60
2023-04-10T07:27:34.567Z,18.10
2023-04-10T07:28:07.987Z,18.00
2023-04-10T07:28:41.551Z,18.90
2023-04-10T07:29:15.683Z,19.30
2023-04-10T07:29:49.038Z,15.80
2023-04-10T07:30:22.504Z,18.00
2023-04-10T07:30:56.019Z,19.70
2023-04-10T07:31:29.643Z,17.70
2023-04-10T07:32:03.388Z,18.10
2023-04-10T07:32:37.774Z,18.80
2023-04-10T07:33:11.594Z,18.20
2023-04-10T07:33:47.010Z,20.70
2023-04-10T07:34:20.455Z,19.60
2023-04-10T07:34:53.955Z,18.70
2023-04-10T07:35:27.617Z,18.40
2023-04-10T07:36:02.731Z,19.30
2023-04-10T07:36:36.630Z,21.10
2023-04-10T07:37:10.144Z,20.40
2023-04-10T07:37:44.429Z,18.70
2023-04-10T07:38:18.171Z,18.30
2023-04-10T07:38:52.040Z,19.90
2023-04-10T07:39:25.722Z,18.00
2023-04-10T07:39:59.255Z,20.50
2023-04-10T07:40:32.737Z,19.90
2023-04-10T07:41:06.487Z,21.10
2023-04-10T07:41:40.538Z,21.40
2023-04-10T07:42:13.965Z,19.50
2023-04-10T07:42:48.490Z,19.10
2023-04-10T07:43:22.181Z,23.40
2023-04-10T07:43:55.743Z,20.40
2023-04-10T07:44:29.242Z,20.40
2023-04-10T07:45:02.820Z,19.70
2023-04-10T07:45:36.519Z,19.80
2023-04-10T07:47:44.569Z,19.70
2023-04-10T07:48:25.923Z,20.70
2023-04-10T07:48:59.863Z,19.60
2023-04-10T07:49:33.272Z,20.30
2023-04-10T07:50:07.967Z,20.00
2023-04-10T07:50:41.550Z,18.30
2023-04-10T07:51:15.676Z,19.40
2023-04-10T07:51:49.128Z,17.00
2023-04-10T07:52:23.021Z,16.80
2023-04-10T07:52:56.692Z,17.00
2023-04-10T07:53:30.176Z,16.50
2023-04-10T07:54:06.771Z,17.60
2023-04-10T07:54:40.166Z,16.00
2023-04-10T07:55:13.661Z,16.10
2023-04-10T07:55:49.790Z,16.40
2023-04-10T07:56:23.557Z,16.70
2023-04-10T07:56:56.958Z,16.70
2023-04-10T07:57:32.409Z,17.50
2023-04-10T07:58:06.526Z,17.00
2023-04-10T07:58:40.019Z,17.00
2023-04-10T07:59:13.507Z,18.00
2023-04-10T07:59:47.178Z,17.90
2023-04-10T08:00:20.783Z,18.70
2023-04-10T08:00:54.157Z,18.30
2023-04-10T08:01:29.046Z,16.30
2023-04-10T08:02:02.674Z,17.40
2023-04-10T08:02:36.568Z,17.60
2023-04-10T08:03:10.564Z,17.40
2023-04-10T08:03:47.200Z,18.70
2023-04-10T08:04:21.271Z,17.80
2023-04-10T08:04:55.021Z,17.40
2023-04-10T08:05:28.952Z,17.40
2023-04-10T08:06:02.403Z,17.20
2023-04-10T08:06:35.971Z,16.90
2023-04-10T08:07:09.467Z,17.10
2023-04-10T08:07:43.104Z,18.30
2023-04-10T08:08:17.116Z,17.00
2023-04-10T08:08:52.757Z,17.70
2023-04-10T08:09:26.592Z,19.10
2023-04-10T08:10:01.620Z,17.30
2023-04-10T08:10:39.294Z,18.50
2023-04-10T08:11:28.069Z,16.50
2023-04-10T08:12:01.594Z,17.70
2023-04-10T08:12:37.087Z,16.10
2023-04-10T08:13:10.587Z,17.80
2023-04-10T08:13:44.040Z,17.20
2023-04-10T08:14:17.956Z,17.20
2023-04-10T08:14:52.092Z,17.20
2023-04-10T08:15:25.762Z,16.80
2023-04-10T08:15:59.151Z,17.30
2023-04-10T08:16:34.686Z,16.30
2023-04-10T08:17:14.816Z,18.10
2023-04-10T08:17:48.532Z,16.40
2023-04-10T08:18:24.448Z,16.80
2023-04-10T08:18:59.154Z,18.60
2023-04-10T08:19:32.612Z,18.20
2023-04-10T08:20:07.938Z,17.90
2023-04-10T08:20:41.342Z,16.90
2023-04-10T08:21:14.797Z,18.80
2023-04-10T08:21:48.209Z,16.20
2023-04-10T08:22:21.649Z,17.00
2023-04-10T08:22:56.230Z,17.70
2023-04-10T08:23:32.501Z,16.80
2023-04-10T08:24:06.101Z,16.50
2023-04-10T08:24:39.523Z,16.10
2023-04-10T08:25:13.063Z,15.60